Time;durP1;ratioP1;P1;durP2;ratioP2;P2;SDS_P1;SDS_P2;PMS_P1;PMS_P2;Temp;Humidity;BMP_temperature;BMP_pressure;BME280_temperature;BME280_humidity;BME280_pressure;Samples;Min_cycle;Max_cycle;Signal;HPM_P1;HPM_P2
2023/08/22 00:00:39;;;;;;;6.97;3.72;;;;;;;20.82;86.82;101494.88;5008506;28;20040;-61
2023/08/22 00:03:05;;;;;;;5.70;3.40;;;;;;;20.78;87.08;101490.66;5013414;28;20088;-61
2023/08/22 00:05:30;;;;;;;6.53;3.45;;;;;;;20.74;87.16;101489.91;5011100;28;20667;-61
2023/08/22 00:07:56;;;;;;;4.95;3.28;;;;;;;20.70;87.08;101486.56;5011936;28;20563;-61
2023/08/22 00:10:21;;;;;;;6.72;3.42;;;;;;;20.70;87.26;101486.56;5012240;28;20129;-61
2023/08/22 00:12:47;;;;;;;10.05;3.67;;;;;;;20.72;87.02;101489.09;5021875;28;20045;-61
2023/08/22 00:15:13;;;;;;;5.70;3.80;;;;;;;20.74;86.65;101492.53;5009263;28;20435;-61
2023/08/22 00:17:39;;;;;;;8.25;3.65;;;;;;;20.76;86.15;101495.09;5021231;28;20052;-61
2023/08/22 00:20:07;;;;;;;6.22;3.97;;;;;;;20.75;86.06;101485.53;5012754;28;20086;-61
2023/08/22 00:22:33;;;;;;;8.02;3.72;;;;;;;20.74;85.96;101484.66;5003408;28;20720;-61
2023/08/22 00:24:58;;;;;;;6.55;3.75;;;;;;;20.72;85.99;101482.06;5012965;28;20033;-61
2023/08/22 00:27:24;;;;;;;5.10;3.40;;;;;;;20.74;86.46;101489.06;5012508;28;20050;-61
2023/08/22 00:29:49;;;;;;;8.00;3.67;;;;;;;20.74;86.32;101489.06;5013672;28;20124;-61
2023/08/22 00:32:14;;;;;;;7.18;3.65;;;;;;;20.75;86.28;101488.16;5014347;28;20153;-61
2023/08/22 00:34:39;;;;;;;9.07;3.85;;;;;;;20.74;86.36;101481.19;5004348;28;20148;-61
2023/08/22 00:37:06;;;;;;;5.50;3.25;;;;;;;20.75;85.79;101486.34;5013953;28;20069;-61
2023/08/22 00:39:32;;;;;;;6.53;3.72;;;;;;;20.76;86.03;101485.44;5013959;28;20037;-60
2023/08/22 00:41:57;;;;;;;5.60;3.25;;;;;;;20.78;85.86;101483.59;5006787;28;20095;-61
2023/08/22 00:44:23;;;;;;;8.50;3.83;;;;;;;20.84;85.55;101487.81;5004046;28;20037;-61
2023/08/22 00:46:49;;;;;;;8.32;4.05;;;;;;;20.88;84.96;101487.59;5007514;28;20094;-61
2023/08/22 00:49:14;;;;;;;7.07;3.47;;;;;;;20.93;84.56;101488.25;5007996;28;20052;-61
2023/08/22 00:51:41;;;;;;;7.00;3.72;;;;;;;20.95;83.83;101483.81;5005138;28;20045;-61
2023/08/22 00:54:06;;;;;;;5.75;4.18;;;;;;;20.93;82.62;101471.66;5012496;28;20033;-61
2023/08/22 00:56:34;;;;;;;9.27;3.70;;;;;;;20.91;82.48;101468.22;5005729;28;20052;-61
2023/08/22 00:59:01;;;;;;;9.35;3.45;;;;;;;20.89;82.17;101476.19;5007932;28;20522;-62
2023/08/22 01:01:27;;;;;;;7.47;3.35;;;;;;;20.85;82.62;101465.84;5006633;28;20722;-61
2023/08/22 01:03:52;;;;;;;5.50;3.17;;;;;;;20.81;82.84;101469.53;5008046;28;20137;-61
2023/08/22 01:06:46;;;;;;;7.15;2.88;;;;;;;20.75;83.38;101464.50;5004008;28;20038;-61
2023/08/22 01:09:17;;;;;;;4.53;2.75;;;;;;;20.72;83.36;101465.44;5013713;28;20723;-61
2023/08/22 01:11:46;;;;;;;4.65;2.85;;;;;;;20.70;83.20;101468.16;5010595;28;20484;-61
2023/08/22 01:14:18;;;;;;;6.07;3.55;;;;;;;20.68;83.17;101475.22;5007842;28;20418;-61
2023/08/22 01:16:45;;;;;;;6.40;3.40;;;;;;;20.66;82.72;101477.03;5006825;28;20056;-61
2023/08/22 01:19:12;;;;;;;8.20;3.55;;;;;;;20.65;83.15;101470.09;5008789;28;20306;-61
2023/08/22 01:21:51;;;;;;;6.25;3.40;;;;;;;20.63;84.07;101481.56;5008264;28;20042;-61
2023/08/22 01:24:16;;;;;;;7.95;3.20;;;;;;;20.61;83.97;101476.34;5009388;28;20065;-61
2023/08/22 01:26:43;;;;;;;7.35;3.80;;;;;;;20.60;84.05;101490.41;5009947;28;20611;-61
2023/08/22 01:29:10;;;;;;;6.05;2.95;;;;;;;20.58;83.99;101481.72;5009352;28;20038;-61
2023/08/22 01:32:00;;;;;;;7.70;3.47;;;;;;;20.57;84.08;101484.44;5001916;28;20041;-61
2023/08/22 01:34:29;;;;;;;6.18;3.45;;;;;;;20.57;83.94;101479.19;5011423;28;20124;-61
2023/08/22 01:36:55;;;;;;;6.88;2.92;;;;;;;20.55;83.95;101470.47;5007827;28;20041;-61
2023/08/22 01:39:23;;;;;;;9.25;4.22;;;;;;;20.55;84.08;101471.34;5008678;28;20491;-61
2023/08/22 01:41:49;;;;;;;6.53;2.65;;;;;;;20.52;84.06;101470.59;5013105;28;20048;-61
2023/08/22 01:44:15;;;;;;;7.10;3.05;;;;;;;20.48;84.35;101474.28;5011110;28;20399;-61
2023/08/22 01:46:40;;;;;;;5.07;3.03;;;;;;;20.40;84.54;101468.44;5007859;28;20537;-61
2023/08/22 01:49:06;;;;;;;6.60;3.10;;;;;;;20.33;85.13;101480.09;5003890;28;20045;-61
2023/08/22 01:51:31;;;;;;;5.75;3.22;;;;;;;20.27;85.40;101475.94;5011287;28;20042;-61
2023/08/22 01:53:56;;;;;;;4.30;2.97;;;;;;;20.21;85.73;101484.03;5013948;28;20732;-61
2023/08/22 01:56:22;;;;;;;5.65;3.65;;;;;;;20.16;86.26;101481.56;5003740;28;20037;-61
2023/08/22 01:58:47;;;;;;;7.60;3.28;;;;;;;20.10;86.82;101476.53;5012186;28;20073;-61
2023/08/22 02:01:13;;;;;;;7.18;3.38;;;;;;;20.05;87.19;101472.38;5008673;28;20129;-61
2023/08/22 02:03:39;;;;;;;5.70;3.50;;;;;;;20.02;87.57;101467.22;5010601;28;20079;-61
2023/08/22 02:06:05;;;;;;;6.03;3.42;;;;;;;19.98;87.81;101463.84;5006617;28;20037;-61
2023/08/22 02:08:31;;;;;;;6.28;3.50;;;;;;;19.92;88.58;101461.44;5012464;28;20068;-61
2023/08/22 02:10:56;;;;;;;6.15;3.72;;;;;;;19.88;88.62;101457.22;5011638;28;20038;-61
2023/08/22 02:13:21;;;;;;;5.80;2.97;;;;;;;19.86;88.98;101452.97;5007090;28;20222;-61
2023/08/22 02:15:47;;;;;;;7.72;3.38;;;;;;;19.82;89.26;101462.69;5007394;28;20044;-61
2023/08/22 02:18:12;;;;;;;8.98;3.50;;;;;;;19.79;89.33;101465.44;5006240;28;20040;-61
2023/08/22 02:20:37;;;;;;;4.82;3.28;;;;;;;19.75;89.65;101463.78;5011736;28;20038;-61
2023/08/22 02:23:03;;;;;;;8.05;3.60;;;;;;;19.73;89.85;101470.00;5011206;28;20881;-61
2023/08/22 02:25:31;;;;;;;10.02;3.88;;;;;;;19.72;90.04;101465.66;5010545;28;20033;-61
2023/08/22 02:27:57;;;;;;;6.97;3.30;;;;;;;19.68;90.29;101471.94;5015573;28;20037;-61
2023/08/22 02:30:22;;;;;;;5.55;3.03;;;;;;;19.68;90.46;101466.69;5004432;28;20072;-61
2023/08/22 02:32:47;;;;;;;9.57;3.90;;;;;;;19.63;90.79;101465.06;5013227;28;20040;-61
2023/08/22 02:35:13;;;;;;;7.50;3.58;;;;;;;19.60;90.94;101467.78;5009048;28;20044;-61
2023/08/22 02:37:38;;;;;;;6.18;3.47;;;;;;;19.58;90.89;101468.75;5011532;28;20068;-61
2023/08/22 02:40:06;;;;;;;6.55;3.70;;;;;;;19.55;90.85;101466.25;5016785;28;20080;-61
2023/08/22 02:42:32;;;;;;;6.60;3.10;;;;;;;19.52;91.51;101475.06;5018631;28;20248;-61
2023/08/22 02:44:58;;;;;;;8.38;3.80;;;;;;;19.48;91.82;101462.09;5009702;28;20667;-61
2023/08/22 02:47:23;;;;;;;7.25;4.93;;;;;;;19.45;92.56;101462.22;5027785;28;20053;-61
2023/08/22 02:49:49;;;;;;;7.57;4.40;;;;;;;19.42;92.66;101452.69;5015034;28;20286;-61
2023/08/22 02:52:14;;;;;;;6.80;3.95;;;;;;;19.41;92.46;101458.00;5003982;28;20034;-61
2023/08/22 02:54:39;;;;;;;7.43;3.83;;;;;;;19.37;92.94;101462.47;5008632;28;20050;-61
2023/08/22 02:57:05;;;;;;;9.23;3.90;;;;;;;19.37;92.88;101466.84;5016487;28;20107;-61
2023/08/22 02:59:30;;;;;;;5.15;3.20;;;;;;;19.33;92.96;101465.22;5015468;28;20046;-61
2023/08/22 03:01:56;;;;;;;5.50;3.25;;;;;;;19.30;93.59;101467.97;5010827;28;20041;-61
2023/08/22 03:04:21;;;;;;;5.80;3.50;;;;;;;19.27;93.63;101463.69;5013698;28;20030;-61
2023/08/22 03:06:46;;;;;;;7.88;3.70;;;;;;;19.25;93.99;101464.63;5016669;28;21129;-61
2023/08/22 03:09:12;;;;;;;8.50;3.92;;;;;;;19.23;94.30;101456.84;5014328;28;20493;-61
2023/08/22 03:11:37;;;;;;;5.88;4.18;;;;;;;19.20;94.49;101459.56;5011759;28;20099;-61
2023/08/22 03:14:03;;;;;;;5.80;4.03;;;;;;;19.18;94.90;101461.34;5008916;28;20046;-61
2023/08/22 03:16:28;;;;;;;5.13;3.97;;;;;;;19.17;95.01;101466.66;5011149;28;20042;-61
2023/08/22 03:18:54;;;;;;;6.95;3.75;;;;;;;19.15;95.48;101460.59;5005624;28;20049;-61
2023/08/22 03:21:19;;;;;;;11.60;4.13;;;;;;;19.13;95.41;101460.66;5011558;28;20029;-61
2023/08/22 03:23:44;;;;;;;6.15;4.68;;;;;;;19.13;95.29;101462.41;5016355;28;20068;-61
2023/08/22 03:26:13;;;;;;;12.35;4.70;;;;;;;19.13;94.62;101465.91;5011835;28;20686;-61
2023/08/22 03:28:39;;;;;;;8.57;4.38;;;;;;;19.14;94.58;101469.38;5010749;28;20128;-61
2023/08/22 03:31:04;;;;;;;6.35;4.57;;;;;;;19.13;94.37;101465.03;5010553;28;20094;-61
2023/08/22 03:33:31;;;;;;;13.80;5.22;;;;;;;19.10;94.14;101470.38;5013874;28;20033;-61
2023/08/22 03:35:57;;;;;;;8.23;4.15;;;;;;;19.08;93.96;101470.44;5006201;28;20159;-61
2023/08/22 03:38:23;;;;;;;10.02;5.00;;;;;;;19.06;93.63;101465.22;5007079;28;20176;-62
2023/08/22 03:40:49;;;;;;;6.00;3.35;;;;;;;19.03;93.76;101467.09;5008583;28;20037;-60
2023/08/22 03:43:18;;;;;;;6.22;4.47;;;;;;;18.99;93.83;101460.25;5010616;28;20041;-61
2023/08/22 03:45:44;;;;;;;10.20;5.28;;;;;;;18.97;93.80;101455.03;5006827;28;20042;-61
2023/08/22 03:48:09;;;;;;;7.32;4.22;;;;;;;18.96;93.92;101450.72;5005098;28;20043;-61
2023/08/22 03:50:35;;;;;;;4.00;3.58;;;;;;;18.91;94.15;101446.50;5014022;28;20042;-61
2023/08/22 03:53:01;;;;;;;7.05;3.47;;;;;;;18.87;94.53;101445.78;5009505;28;20121;-61
2023/08/22 03:55:26;;;;;;;7.13;4.50;;;;;;;18.83;94.67;101446.75;5013122;28;20045;-61
2023/08/22 03:57:51;;;;;;;9.77;4.63;;;;;;;18.80;95.02;101446.84;5012043;28;20034;-62
2023/08/22 04:00:17;;;;;;;6.63;4.07;;;;;;;18.76;95.08;101455.69;5007662;28;20075;-61
2023/08/22 04:02:43;;;;;;;7.63;4.22;;;;;;;18.72;95.21;101447.97;5007215;28;20041;-62
2023/08/22 04:05:08;;;;;;;11.18;5.18;;;;;;;18.69;95.34;101455.94;5008543;28;20038;-61
2023/08/22 04:07:33;;;;;;;7.97;4.60;;;;;;;18.66;95.39;101453.41;5011502;28;20125;-61
2023/08/22 04:09:59;;;;;;;8.25;4.82;;;;;;;18.63;95.66;101456.97;5011905;28;20048;-61
2023/08/22 04:12:24;;;;;;;6.53;3.67;;;;;;;18.61;95.69;101455.31;5008445;28;20042;-61
2023/08/22 04:14:49;;;;;;;9.98;4.60;;;;;;;18.58;95.91;101458.91;5006033;28;20128;-61
2023/08/22 04:17:15;;;;;;;6.72;4.20;;;;;;;18.56;96.18;101463.28;5005566;28;20092;-61
2023/08/22 04:19:41;;;;;;;6.15;4.00;;;;;;;18.56;96.51;101470.28;5006341;28;20041;-61
2023/08/22 04:22:07;;;;;;;5.60;3.97;;;;;;;18.55;96.57;101463.34;5011350;28;20079;-61
2023/08/22 04:24:32;;;;;;;7.32;4.43;;;;;;;18.53;96.74;101472.09;5010201;28;20126;-61
2023/08/22 04:26:58;;;;;;;11.15;4.63;;;;;;;18.53;96.96;101472.09;5014456;28;20307;-61
2023/08/22 04:29:26;;;;;;;10.27;4.80;;;;;;;18.52;97.01;101474.78;5010727;28;20064;-62
2023/08/22 04:31:52;;;;;;;10.20;4.22;;;;;;;18.52;96.76;101480.03;5017558;28;20034;-61
2023/08/22 04:34:17;;;;;;;6.55;4.63;;;;;;;18.50;96.94;101469.59;5004727;28;20048;-61
2023/08/22 04:36:42;;;;;;;9.90;4.53;;;;;;;18.52;97.23;101475.63;5015126;28;20033;-61
2023/08/22 04:39:08;;;;;;;6.80;4.43;;;;;;;18.53;97.05;101476.47;5008507;28;20696;-62
2023/08/22 04:41:33;;;;;;;10.10;4.93;;;;;;;18.53;97.05;101477.34;5011313;28;20064;-62
2023/08/22 04:43:58;;;;;;;5.70;4.50;;;;;;;18.55;96.99;101469.47;5007950;28;20048;-61
2023/08/22 04:46:24;;;;;;;9.80;4.47;;;;;;;18.56;97.06;101467.66;5010137;28;20498;-62
2023/08/22 04:48:49;;;;;;;8.73;5.40;;;;;;;18.58;97.00;101471.13;5016284;28;20490;-62
2023/08/22 04:51:15;;;;;;;7.32;4.80;;;;;;;18.59;96.90;101468.44;5002240;28;20040;-62
2023/08/22 04:53:40;;;;;;;10.05;5.18;;;;;;;18.60;96.88;101456.22;5020893;28;20034;-62
2023/08/22 04:56:05;;;;;;;6.80;4.65;;;;;;;18.64;97.05;101460.47;5013287;28;20510;-65
2023/08/22 04:58:31;;;;;;;5.63;4.18;;;;;;;18.65;96.99;101464.78;5016573;28;20045;-65
2023/08/22 05:00:57;;;;;;;8.70;5.18;;;;;;;18.68;97.04;101456.81;5016742;28;20495;-65
2023/08/22 05:03:22;;;;;;;9.45;4.63;;;;;;;18.71;97.19;101462.84;5014769;28;20037;-65
2023/08/22 05:05:48;;;;;;;8.43;4.68;;;;;;;18.74;96.85;101465.34;5015157;28;20061;-66
2023/08/22 05:08:13;;;;;;;12.48;5.93;;;;;;;18.81;96.70;101469.50;5010919;28;20034;-65
2023/08/22 05:10:39;;;;;;;9.60;6.15;;;;;;;18.85;96.43;101457.22;5013615;28;20048;-65
2023/08/22 05:13:04;;;;;;;11.23;6.13;;;;;;;18.90;96.52;101463.16;5014107;28;20038;-65
2023/08/22 05:15:29;;;;;;;11.63;5.45;;;;;;;18.95;96.43;101464.72;5014379;28;20042;-65
2023/08/22 05:17:55;;;;;;;8.63;5.35;;;;;;;19.00;96.06;101468.03;5025463;28;20033;-65
2023/08/22 05:20:20;;;;;;;8.73;5.97;;;;;;;19.07;96.36;101466.97;5010970;28;20065;-68
2023/08/22 05:22:46;;;;;;;7.70;5.10;;;;;;;19.15;95.43;101465.84;5012575;28;20215;-66
2023/08/22 05:25:11;;;;;;;11.75;5.95;;;;;;;19.20;95.40;101466.56;5011587;28;20517;-66
2023/08/22 05:27:37;;;;;;;11.18;5.93;;;;;;;19.24;95.30;101470.78;5009655;28;20036;-66
2023/08/22 05:30:05;;;;;;;11.48;5.22;;;;;;;19.28;94.94;101469.78;5013041;28;20033;-66
2023/08/22 05:32:30;;;;;;;11.55;5.30;;;;;;;19.32;94.89;101468.78;5013114;28;20045;-67
2023/08/22 05:34:56;;;;;;;10.02;5.32;;;;;;;19.34;94.83;101475.69;5015021;28;20406;-66
2023/08/22 05:37:21;;;;;;;8.05;5.07;;;;;;;19.36;95.24;101471.25;5012927;28;20054;-66
2023/08/22 05:39:46;;;;;;;8.50;4.88;;;;;;;19.38;94.63;101471.22;5013486;28;20037;-67
2023/08/22 05:42:12;;;;;;;8.18;5.10;;;;;;;19.38;94.47;101477.31;5009418;28;20182;-67
2023/08/22 05:44:37;;;;;;;8.90;5.15;;;;;;;19.40;94.27;101478.09;5009222;28;20040;-67
2023/08/22 05:47:04;;;;;;;9.00;4.53;;;;;;;19.42;94.35;101478.03;5010606;28;20465;-67
2023/08/22 05:49:30;;;;;;;14.38;5.63;;;;;;;19.45;94.06;101481.41;5009196;28;20042;-66
2023/08/22 05:52:04;;;;;;;10.35;5.22;;;;;;;19.50;93.30;101474.25;5020681;28;20413;-66
2023/08/22 05:54:30;;;;;;;8.23;5.45;;;;;;;19.55;93.35;101474.09;5026691;28;20449;-66
2023/08/22 05:56:56;;;;;;;9.65;4.97;;;;;;;19.60;92.72;101477.41;5025862;28;20037;-66
2023/08/22 05:59:22;;;;;;;9.63;5.85;;;;;;;19.71;92.21;101469.19;5016548;28;20041;-67
2023/08/22 06:01:48;;;;;;;9.55;5.40;;;;;;;19.78;91.93;101482.03;5020690;28;20068;-67
2023/08/22 06:04:13;;;;;;;8.98;5.32;;;;;;;19.82;91.97;101478.44;5022000;28;20076;-67
2023/08/22 06:06:38;;;;;;;10.00;5.53;;;;;;;19.87;91.62;101483.50;5013090;28;20415;-66
2023/08/22 06:09:04;;;;;;;13.15;5.80;;;;;;;19.94;90.18;101475.38;5016531;28;20122;-67
2023/08/22 06:11:30;;;;;;;11.02;6.18;;;;;;;20.04;89.70;101479.38;5007735;28;20045;-63
2023/08/22 06:13:56;;;;;;;10.75;5.75;;;;;;;20.19;88.87;101483.22;5009428;28;20832;-63
2023/08/22 06:16:21;;;;;;;11.52;5.80;;;;;;;20.36;87.61;101482.59;5012560;28;20048;-63
2023/08/22 06:18:46;;;;;;;11.80;5.25;;;;;;;20.47;85.73;101473.41;5007273;28;20312;-63
2023/08/22 06:21:12;;;;;;;8.35;4.93;;;;;;;20.69;85.62;101469.06;5012304;28;20374;-63
2023/08/22 06:23:37;;;;;;;10.60;4.68;;;;;;;20.84;85.37;101459.72;5012172;28;20073;-63
2023/08/22 06:26:02;;;;;;;10.80;4.63;;;;;;;20.87;83.99;101464.84;5012633;28;20052;-63
2023/08/22 06:28:28;;;;;;;10.00;5.47;;;;;;;20.83;83.37;101471.16;5012217;28;20076;-62
2023/08/22 06:30:53;;;;;;;11.38;5.15;;;;;;;20.69;82.94;101470.81;5016108;28;20037;-63
2023/08/22 06:33:19;;;;;;;9.48;5.38;;;;;;;20.60;83.08;101472.00;5021073;28;20026;-62
2023/08/22 06:35:47;;;;;;;9.85;4.88;;;;;;;20.55;84.27;101486.25;5011238;28;20042;-63
2023/08/22 06:38:13;;;;;;;11.32;4.60;;;;;;;20.54;84.64;101474.88;5020125;28;20502;-62
2023/08/22 06:40:38;;;;;;;9.70;4.85;;;;;;;20.60;85.31;101481.69;5019188;28;20125;-62
2023/08/22 06:43:03;;;;;;;7.97;4.22;;;;;;;20.69;85.15;101479.56;5015790;28;20167;-62
2023/08/22 06:45:29;;;;;;;10.10;4.80;;;;;;;20.80;84.74;101480.94;5006003;28;20450;-62
2023/08/22 06:47:55;;;;;;;8.52;5.18;;;;;;;20.97;83.53;101476.72;5008281;28;20029;-63
2023/08/22 06:50:20;;;;;;;13.48;4.93;;;;;;;21.19;82.44;101476.72;5005074;28;20046;-63
2023/08/22 06:52:46;;;;;;;13.18;5.60;;;;;;;21.40;81.10;101469.72;5016392;28;20191;-62
2023/08/22 06:55:11;;;;;;;14.13;5.20;;;;;;;21.54;79.90;101477.88;5009807;28;20864;-63
2023/08/22 06:57:36;;;;;;;12.60;5.38;;;;;;;21.63;79.33;101473.13;5016532;28;20109;-62
2023/08/22 07:00:13;;;;;;;11.35;4.93;;;;;;;21.70;78.86;101474.56;5003384;28;20163;-62
2023/08/22 07:02:38;;;;;;;14.90;6.47;;;;;;;21.74;78.55;101464.75;5008846;28;20196;-62
2023/08/22 07:05:04;;;;;;;7.78;4.50;;;;;;;21.78;78.49;101477.72;5008979;28;20498;-63
2023/08/22 07:07:29;;;;;;;17.23;6.85;;;;;;;21.78;78.11;101472.47;5009579;28;20418;-63
2023/08/22 07:09:55;;;;;;;10.18;5.80;;;;;;;21.90;77.97;101470.22;5007708;28;20084;-63
2023/08/22 07:12:20;;;;;;;7.88;4.70;;;;;;;21.97;78.25;101472.50;5029895;28;20486;-63
2023/08/22 07:14:45;;;;;;;9.55;5.10;;;;;;;22.04;77.99;101476.56;5011579;28;20410;-63
2023/08/22 07:17:11;;;;;;;14.75;6.25;;;;;;;22.05;77.44;101478.31;5012199;28;20029;-63
2023/08/22 07:19:36;;;;;;;9.00;5.20;;;;;;;22.14;77.68;101480.53;5003402;28;20124;-63
2023/08/22 07:22:01;;;;;;;10.93;5.20;;;;;;;22.21;77.56;101479.31;5017295;28;20203;-64
2023/08/22 07:24:27;;;;;;;13.50;5.82;;;;;;;22.25;77.51;101486.16;5027841;28;20637;-63
2023/08/22 07:26:52;;;;;;;10.40;5.78;;;;;;;22.25;77.17;101485.28;5010192;28;20444;-64
2023/08/22 07:29:18;;;;;;;13.45;6.35;;;;;;;22.29;76.18;101479.81;5014414;28;20034;-63
2023/08/22 07:31:43;;;;;;;11.77;5.28;;;;;;;22.40;75.95;101474.09;5011344;28;20045;-63
2023/08/22 07:34:08;;;;;;;11.60;5.45;;;;;;;22.52;75.31;101472.66;5015222;28;20132;-63
2023/08/22 07:36:34;;;;;;;13.02;4.93;;;;;;;22.65;75.69;101465.91;5019573;28;20154;-63
2023/08/22 07:38:59;;;;;;;12.85;5.85;;;;;;;22.70;74.13;101456.00;5020427;28;20037;-63
2023/08/22 07:41:25;;;;;;;12.88;6.25;;;;;;;22.72;74.96;101464.69;5032294;28;20452;-64
2023/08/22 07:43:50;;;;;;;12.68;5.40;;;;;;;22.74;75.47;101478.66;5010420;28;20049;-63
2023/08/22 07:46:15;;;;;;;15.65;5.85;;;;;;;22.76;75.37;101466.25;5010584;28;20517;-64
2023/08/22 07:48:41;;;;;;;10.10;4.57;;;;;;;22.79;76.08;101472.25;5020081;28;20079;-62
2023/08/22 07:51:06;;;;;;;10.07;4.97;;;;;;;22.75;76.07;101481.22;5014217;28;20033;-63
2023/08/22 07:53:32;;;;;;;12.32;5.22;;;;;;;22.66;76.09;101488.69;5022413;28;20131;-63
2023/08/22 07:55:57;;;;;;;11.50;6.13;;;;;;;22.60;75.94;101487.19;5012400;28;20065;-63
2023/08/22 07:58:23;;;;;;;13.93;6.40;;;;;;;22.61;75.60;101488.91;5022950;28;20071;-63
2023/08/22 08:00:48;;;;;;;11.57;5.40;;;;;;;22.67;75.73;101493.91;5007001;28;20509;-63
2023/08/22 08:03:14;;;;;;;11.63;5.80;;;;;;;22.78;75.76;101488.13;5017046;28;20386;-63
2023/08/22 08:05:39;;;;;;;11.05;5.22;;;;;;;22.87;75.75;101504.34;5009875;28;20743;-63
2023/08/22 08:08:05;;;;;;;12.73;6.45;;;;;;;22.95;75.00;101492.59;5014341;28;20491;-63
2023/08/22 08:10:30;;;;;;;10.55;5.25;;;;;;;23.00;74.27;101494.09;5013630;28;20053;-63
2023/08/22 08:12:55;;;;;;;14.40;6.18;;;;;;;23.04;74.30;101495.63;5011092;28;20044;-63
2023/08/22 08:15:21;;;;;;;11.30;5.72;;;;;;;23.07;74.40;101500.75;5014889;28;21074;-63
2023/08/22 08:17:46;;;;;;;11.75;7.10;;;;;;;23.18;73.52;101485.31;5011737;28;20510;-63
2023/08/22 08:20:13;;;;;;;16.80;7.32;;;;;;;23.27;72.23;101481.38;5013562;28;20044;-63
2023/08/22 08:22:39;;;;;;;14.95;8.10;;;;;;;23.44;71.40;101474.31;5013375;28;20046;-63
2023/08/22 08:25:04;;;;;;;16.00;6.25;;;;;;;23.66;71.07;101470.59;5031320;28;20056;-63
2023/08/22 08:27:31;;;;;;;16.40;7.35;;;;;;;23.81;71.00;101480.34;5020107;28;20327;-63
2023/08/22 08:29:56;;;;;;;13.15;7.35;;;;;;;23.95;70.29;101476.09;5013142;28;20036;-63
2023/08/22 08:32:22;;;;;;;13.55;6.30;;;;;;;24.07;70.21;101484.31;5014509;28;20037;-62
2023/08/22 08:34:47;;;;;;;14.25;7.90;;;;;;;24.15;69.90;101475.03;5022726;28;20065;-62
2023/08/22 08:37:12;;;;;;;15.65;7.93;;;;;;;24.31;68.81;101467.97;5011915;28;20891;-63
2023/08/22 08:39:38;;;;;;;13.93;7.90;;;;;;;24.43;67.70;101455.91;5024308;28;20119;-61
2023/08/22 08:42:13;;;;;;;10.77;6.45;;;;;;;24.50;67.71;101470.47;5013691;28;20061;-61
2023/08/22 08:44:39;;;;;;;16.45;6.32;;;;;;;24.64;67.90;101473.22;5014660;28;20041;-61
2023/08/22 08:47:07;;;;;;;16.17;6.60;;;;;;;24.78;67.53;101469.84;5010817;28;20048;-61
2023/08/22 08:49:34;;;;;;;16.55;7.07;;;;;;;24.85;66.87;101461.47;5007454;28;20050;-61
2023/08/22 08:52:07;;;;;;;12.60;7.47;;;;;;;24.82;65.62;101455.50;5010797;28;20045;-61
2023/08/22 08:54:33;;;;;;;15.63;9.00;;;;;;;24.72;65.99;101463.13;5017372;28;20029;-61
2023/08/22 08:56:59;;;;;;;15.57;6.78;;;;;;;24.72;67.00;101471.03;5013822;28;20041;-61
2023/08/22 08:59:24;;;;;;;13.57;7.05;;;;;;;24.87;67.08;101479.91;5017151;28;20168;-62
2023/08/22 09:01:51;;;;;;;16.02;6.78;;;;;;;25.08;65.59;101458.34;5012801;28;20596;-61
2023/08/22 09:04:17;;;;;;;10.90;5.78;;;;;;;25.28;65.57;101459.88;5023125;28;20045;-61
2023/08/22 09:06:45;;;;;;;15.27;6.80;;;;;;;25.44;65.80;101465.97;5013588;28;20134;-62
2023/08/22 09:09:12;;;;;;;13.30;6.25;;;;;;;25.47;65.23;101452.56;5021055;28;20090;-61
2023/08/22 09:11:46;;;;;;;16.85;6.78;;;;;;;25.46;65.13;101461.47;5011839;28;20056;-67
2023/08/22 09:14:11;;;;;;;;;;;;;;;25.45;66.37;101474.78;5006776;28;20103;-67
2023/08/22 09:16:37;;;;;;;18.77;6.53;;;;;;;25.39;65.51;101467.16;5009174;28;20007;-67
2023/08/22 09:19:03;;;;;;;14.50;7.95;;;;;;;25.17;65.31;101470.25;5020397;28;20041;-67
2023/08/22 09:21:29;;;;;;;15.40;7.95;;;;;;;25.08;64.84;101463.66;5005434;28;20029;-66
2023/08/22 09:24:09;;;;;;;16.80;7.63;;;;;;;25.11;66.17;101480.31;5019361;28;20459;-66
2023/08/22 09:26:35;;;;;;;14.68;6.90;;;;;;;25.11;66.14;101485.59;5006294;28;20044;-66
2023/08/22 09:29:07;;;;;;;15.75;9.48;;;;;;;25.08;65.16;101473.41;5017026;28;20124;-67
2023/08/22 09:31:36;;;;;;;16.98;8.52;;;;;;;25.16;65.80;101478.25;5008309;28;20481;-67
2023/08/22 09:34:09;;;;;;;16.75;8.05;;;;;;;25.22;65.83;101470.81;5018841;28;20418;-66
2023/08/22 09:36:44;;;;;;;16.75;7.15;;;;;;;25.29;66.16;101471.31;5018667;28;20025;-67
2023/08/22 09:39:12;;;;;;;14.02;8.05;;;;;;;25.46;65.96;101472.06;5013562;28;20025;-67
2023/08/22 09:41:38;;;;;;;14.88;7.88;;;;;;;25.68;64.79;101457.56;5019995;28;20076;-67
2023/08/22 09:44:05;;;;;;;24.65;9.70;;;;;;;25.85;62.70;101433.53;5011052;28;20057;-67
2023/08/22 09:46:31;;;;;;;17.33;9.20;;;;;;;26.08;62.19;101417.94;5013580;28;20038;-67
2023/08/22 09:48:59;;;;;;;18.17;9.43;;;;;;;26.25;61.93;101424.84;5017264;28;20030;-67
2023/08/22 09:51:25;;;;;;;17.40;9.52;;;;;;;26.33;61.58;101422.59;5009408;28;20041;-67
2023/08/22 09:53:53;;;;;;;16.15;7.60;;;;;;;26.43;59.63;101391.00;5012735;28;20048;-67
2023/08/22 09:56:20;;;;;;;15.30;7.47;;;;;;;26.45;58.89;101389.94;5016239;28;20026;-67
2023/08/22 09:58:46;;;;;;;14.93;7.93;;;;;;;26.57;58.89;101385.69;5009094;28;20374;-67
2023/08/22 10:01:16;;;;;;;17.55;9.38;;;;;;;26.54;57.10;101359.38;5020577;28;20123;-67
2023/08/22 10:03:46;;;;;;;16.65;8.75;;;;;;;26.62;57.70;101380.94;5024744;28;20085;-67
2023/08/22 10:06:13;;;;;;;15.55;8.52;;;;;;;26.75;57.91;101379.16;5005472;28;20629;-67
2023/08/22 10:08:45;;;;;;;17.15;7.95;;;;;;;26.90;56.64;101369.38;5021045;28;20041;-68
2023/08/22 10:11:12;;;;;;;18.38;7.40;;;;;;;26.98;56.65;101365.28;5017449;28;20044;-67
2023/08/22 10:13:39;;;;;;;16.27;7.85;;;;;;;26.83;56.74;101371.59;5019210;28;20061;-67
2023/08/22 10:16:05;;;;;;;13.63;6.35;;;;;;;26.73;55.24;101343.94;5015296;28;20469;-68
2023/08/22 10:18:31;;;;;;;10.13;5.65;;;;;;;26.79;54.76;101337.41;5017025;28;20108;-69
2023/08/22 10:20:57;;;;;;;14.88;6.20;;;;;;;26.80;55.16;101345.28;5019354;28;20030;-67
2023/08/22 10:23:44;;;;;;;13.85;6.07;;;;;;;26.78;55.53;101354.25;5016778;28;20029;-69
2023/08/22 10:26:09;;;;;;;11.65;5.03;;;;;;;26.89;55.14;101336.69;5015334;28;20569;-67
2023/08/22 10:28:41;;;;;;;16.17;6.43;;;;;;;27.03;54.53;101327.78;5015867;28;20034;-67
2023/08/22 10:31:07;;;;;;;13.18;5.80;;;;;;;26.95;53.72;101320.38;5009829;28;20064;-67
2023/08/22 10:33:32;;;;;;;14.30;6.40;;;;;;;26.78;54.22;101317.97;5005918;28;20463;-66
2023/08/22 10:36:06;;;;;;;10.43;5.15;;;;;;;26.77;55.46;101337.47;5012701;28;20028;-67
2023/08/22 10:38:51;;;;;;;11.80;5.50;;;;;;;26.67;56.57;101363.75;5012274;28;20791;-67
2023/08/22 10:41:19;;;;;;;11.50;4.95;;;;;;;26.76;55.79;101354.34;5016633;28;20079;-67
2023/08/22 10:43:45;;;;;;;12.57;6.22;;;;;;;26.91;54.20;101318.00;5007820;28;20038;-67
2023/08/22 10:46:10;;;;;;;12.27;5.53;;;;;;;27.19;53.77;101312.53;5007299;28;20089;-67
2023/08/22 10:48:36;;;;;;;11.55;5.10;;;;;;;27.68;53.62;101316.16;5013011;28;20037;-67
2023/08/22 10:51:06;;;;;;;12.20;5.30;;;;;;;28.10;51.11;101285.69;5016960;28;20029;-66
2023/08/22 10:53:44;;;;;;;10.45;4.97;;;;;;;27.99;49.72;101260.81;5013019;28;20041;-66
2023/08/22 10:56:18;;;;;;;9.27;4.82;;;;;;;28.07;50.29;101272.56;5015284;28;20041;-66
2023/08/22 10:58:44;;;;;;;11.40;4.20;;;;;;;28.05;50.20;101268.34;5015734;28;20034;-67
2023/08/22 11:01:15;;;;;;;10.55;4.10;;;;;;;28.17;50.59;101275.44;5014628;28;20126;-67
2023/08/22 11:03:42;;;;;;;10.40;3.42;;;;;;;28.10;48.31;101252.91;5016087;28;20049;-67
2023/08/22 11:06:16;;;;;;;6.03;2.55;;;;;;;28.33;48.43;101247.59;5018378;28;20037;-67
2023/08/22 11:08:43;;;;;;;10.77;3.05;;;;;;;28.69;47.66;101237.81;5018279;28;20144;-66
2023/08/22 11:11:11;;;;;;;8.00;4.18;;;;;;;28.68;48.57;101242.28;5014729;28;20493;-67
2023/08/22 11:13:40;;;;;;;10.75;4.38;;;;;;;28.45;48.55;101251.16;5020363;28;20064;-67
2023/08/22 11:16:24;;;;;;;13.00;4.32;;;;;;;28.08;49.34;101276.94;5015331;28;20036;-67
2023/08/22 11:18:49;;;;;;;10.07;4.57;;;;;;;28.10;48.96;101267.06;5019206;28;20038;-67